Time;durP1;ratioP1;P1;durP2;ratioP2;P2;SDS_P1;SDS_P2;PMS_P1;PMS_P2;Temp;Humidity;BMP_temperature;BMP_pressure;BME280_temperature;BME280_humidity;BME280_pressure;Samples;Min_cycle;Max_cycle;Signal;HPM_P1;HPM_P2
2023/10/20 00:01:20;;;;;;;22.52;20.25;;;;;;;13.25;100.00;98377.50;5007507;28;20429;-68
2023/10/20 00:03:45;;;;;;;22.70;20.20;;;;;;;13.23;100.00;98390.53;5007091;28;20478;-68
2023/10/20 00:06:10;;;;;;;22.30;19.98;;;;;;;13.25;100.00;98380.09;5002298;28;20097;-65
2023/10/20 00:08:36;;;;;;;23.17;20.67;;;;;;;13.24;100.00;98386.22;5003488;28;20034;-67
2023/10/20 00:11:04;;;;;;;21.40;19.08;;;;;;;13.25;100.00;98387.91;5013811;28;20013;-67
2023/10/20 00:13:30;;;;;;;22.15;19.45;;;;;;;13.22;100.00;98375.84;5021828;28;20565;-68
2023/10/20 00:15:55;;;;;;;25.30;21.38;;;;;;;13.23;100.00;98372.34;5010289;28;20029;-67
2023/10/20 00:18:20;;;;;;;23.73;21.23;;;;;;;13.23;100.00;98364.53;5016435;28;20129;-67
2023/10/20 00:20:46;;;;;;;23.95;21.35;;;;;;;13.22;100.00;98362.84;5006206;28;20061;-66
2023/10/20 00:23:14;;;;;;;23.17;20.88;;;;;;;13.21;100.00;98351.56;4998081;28;20057;-66
2023/10/20 00:25:39;;;;;;;22.52;20.13;;;;;;;13.22;100.00;98352.44;5015610;28;20041;-65
2023/10/20 00:28:05;;;;;;;23.50;21.15;;;;;;;13.23;100.00;98343.75;5023197;28;20033;-66
2023/10/20 00:30:30;;;;;;;23.27;20.73;;;;;;;13.21;100.00;98340.31;4987738;28;20057;-67
2023/10/20 00:32:56;;;;;;;22.67;20.42;;;;;;;13.20;100.00;98339.44;5002419;28;20060;-67
2023/10/20 00:35:21;;;;;;;23.70;20.85;;;;;;;13.22;100.00;98336.84;5006606;28;20026;-67
2023/10/20 00:37:46;;;;;;;23.80;20.90;;;;;;;13.21;100.00;98319.50;5015695;28;20105;-67
2023/10/20 00:40:12;;;;;;;23.48;21.08;;;;;;;13.23;100.00;98314.25;4991379;28;20055;-66
2023/10/20 00:42:38;;;;;;;27.42;22.05;;;;;;;13.20;100.00;98303.03;5006353;28;20064;-67
2023/10/20 00:45:04;;;;;;;25.52;20.92;;;;;;;13.17;100.00;98287.50;5007261;28;20030;-68
2023/10/20 00:47:31;;;;;;;24.50;20.02;;;;;;;13.18;100.00;98284.03;5026433;28;20022;-67
2023/10/20 00:49:57;;;;;;;23.17;20.08;;;;;;;13.17;100.00;98282.31;4998942;28;20057;-66
2023/10/20 00:52:25;;;;;;;23.67;21.17;;;;;;;13.16;100.00;98278.00;5014169;28;20045;-67
2023/10/20 00:54:51;;;;;;;24.92;21.02;;;;;;;13.14;100.00;98289.31;5011727;28;20033;-67
2023/10/20 00:57:18;;;;;;;23.27;20.77;;;;;;;13.15;100.00;98280.63;5008526;28;20030;-66
2023/10/20 00:59:43;;;;;;;24.30;21.08;;;;;;;13.15;100.00;98271.06;5010867;28;20068;-66
2023/10/20 01:02:09;;;;;;;24.23;21.52;;;;;;;13.15;100.00;98265.03;5011373;28;20469;-67
2023/10/20 01:04:35;;;;;;;23.83;21.25;;;;;;;13.15;100.00;98262.44;5010111;28;20033;-67
2023/10/20 01:07:00;;;;;;;24.95;22.33;;;;;;;13.14;100.00;98258.97;5009551;28;20029;-67
2023/10/20 01:09:26;;;;;;;29.10;21.25;;;;;;;13.12;100.00;98255.53;5008854;28;20030;-67
2023/10/20 01:11:53;;;;;;;26.08;21.90;;;;;;;13.11;100.00;98251.25;5001834;28;20376;-66
2023/10/20 01:14:18;;;;;;;25.25;21.45;;;;;;;13.09;100.00;98247.81;5009195;28;20036;-67
2023/10/20 01:16:44;;;;;;;25.58;22.90;;;;;;;13.09;100.00;98232.22;5019352;28;20120;-67
2023/10/20 01:19:09;;;;;;;25.15;22.25;;;;;;;13.07;100.00;98224.44;5020326;28;20049;-67
2023/10/20 01:21:35;;;;;;;24.95;22.30;;;;;;;13.08;100.00;98225.28;5008874;28;20101;-66
2023/10/20 01:24:02;;;;;;;26.35;23.60;;;;;;;13.07;100.00;98215.78;5011003;28;20357;-66
2023/10/20 01:26:29;;;;;;;28.55;24.58;;;;;;;13.07;100.00;98205.38;5009203;28;20108;-67
2023/10/20 01:28:54;;;;;;;27.73;22.38;;;;;;;13.07;100.00;98202.78;5021897;28;20076;-67
2023/10/20 01:31:20;;;;;;;28.27;23.98;;;;;;;13.06;100.00;98199.31;5010507;28;20022;-67
2023/10/20 01:33:45;;;;;;;28.00;22.80;;;;;;;13.06;100.00;98195.88;5008697;28;20458;-67
2023/10/20 01:36:10;;;;;;;28.92;24.35;;;;;;;13.05;100.00;98196.75;5018046;28;20093;-67
2023/10/20 01:38:35;;;;;;;26.38;23.45;;;;;;;13.05;100.00;98199.34;5019354;28;20064;-67
2023/10/20 01:41:01;;;;;;;26.02;23.23;;;;;;;13.07;100.00;98200.19;5013590;28;20069;-66
2023/10/20 01:43:26;;;;;;;28.80;24.33;;;;;;;13.06;100.00;98201.06;5005262;28;20045;-67
2023/10/20 01:45:53;;;;;;;29.42;24.35;;;;;;;13.06;100.00;98208.88;5016146;28;20500;-66
2023/10/20 01:48:19;;;;;;;26.27;23.33;;;;;;;13.08;100.00;98199.28;5015922;28;20018;-67
2023/10/20 01:50:44;;;;;;;27.85;24.55;;;;;;;13.08;100.00;98194.09;5007746;28;20070;-67
2023/10/20 01:53:10;;;;;;;28.50;23.77;;;;;;;13.09;100.00;98182.81;5005039;28;20026;-66
2023/10/20 01:55:35;;;;;;;28.13;24.23;;;;;;;13.08;100.00;98183.69;5019633;28;20171;-66
2023/10/20 01:58:00;;;;;;;26.83;23.70;;;;;;;13.08;100.00;98173.28;5004889;28;20429;-67
2023/10/20 02:00:26;;;;;;;26.38;22.80;;;;;;;13.07;100.00;98169.84;4998129;28;20048;-67
2023/10/20 02:02:51;;;;;;;27.40;24.38;;;;;;;13.07;100.00;98166.38;5014064;28;20025;-66
2023/10/20 02:05:16;;;;;;;29.67;24.52;;;;;;;13.07;100.00;98155.97;5010842;28;20566;-67
2023/10/20 02:07:42;;;;;;;28.42;24.88;;;;;;;13.06;100.00;98154.28;5002416;28;20025;-67
2023/10/20 02:10:08;;;;;;;27.25;23.42;;;;;;;13.06;100.00;98138.69;5002132;28;20014;-67
2023/10/20 02:12:34;;;;;;;27.98;23.23;;;;;;;13.05;100.00;98137.81;5013122;28;20106;-66
2023/10/20 02:14:59;;;;;;;29.35;23.65;;;;;;;13.06;100.00;98143.88;5002063;28;20496;-66
2023/10/20 02:17:24;;;;;;;26.73;23.55;;;;;;;13.05;100.00;98143.03;5009241;28;20116;-66
2023/10/20 02:19:49;;;;;;;30.13;24.90;;;;;;;13.03;100.00;98133.53;5012944;28;20281;-67
2023/10/20 02:22:15;;;;;;;30.40;25.25;;;;;;;13.04;100.00;98136.09;5013469;28;20030;-66
2023/10/20 02:24:40;;;;;;;29.67;25.20;;;;;;;13.05;100.00;98136.97;4990335;28;20034;-67
2023/10/20 02:27:05;;;;;;;28.02;24.52;;;;;;;13.06;100.00;98128.28;5014208;28;20014;-67
2023/10/20 02:29:30;;;;;;;27.48;23.52;;;;;;;13.05;100.00;98117.03;5002358;28;20076;-66
2023/10/20 02:31:56;;;;;;;26.35;23.50;;;;;;;13.05;100.00;98110.97;5005221;28;20014;-67
2023/10/20 02:34:22;;;;;;;28.50;22.73;;;;;;;13.06;100.00;98102.28;5012233;28;20045;-67
2023/10/20 02:36:49;;;;;;;26.50;22.60;;;;;;;13.07;100.00;98096.19;5002157;28;20055;-67
2023/10/20 02:39:14;;;;;;;27.25;23.23;;;;;;;13.06;100.00;98084.94;5005343;28;20018;-66
2023/10/20 02:41:40;;;;;;;26.20;23.08;;;;;;;13.08;100.00;98079.69;5011101;28;20383;-67
2023/10/20 02:44:05;;;;;;;25.38;22.65;;;;;;;13.05;100.00;98072.84;5011364;28;20024;-67
2023/10/20 02:46:31;;;;;;;25.40;21.90;;;;;;;13.05;100.00;98079.78;5008681;28;20474;-67
2023/10/20 02:48:56;;;;;;;25.50;21.77;;;;;;;13.06;100.00;98076.31;5008375;28;21273;-66
2023/10/20 02:51:21;;;;;;;28.85;23.02;;;;;;;13.03;100.00;98077.22;5011304;28;20041;-66
2023/10/20 02:53:47;;;;;;;28.10;23.20;;;;;;;13.02;100.00;98061.66;5007647;28;20528;-67
2023/10/20 02:56:14;;;;;;;24.33;21.67;;;;;;;13.03;100.00;98052.94;5005183;28;20492;-67
2023/10/20 02:58:43;;;;;;;24.55;22.00;;;;;;;13.03;100.00;98050.34;5014862;28;20029;-67
2023/10/20 03:01:09;;;;;;;25.92;21.90;;;;;;;13.04;100.00;98052.06;5008354;28;20022;-65
2023/10/20 03:03:35;;;;;;;25.70;22.90;;;;;;;13.04;100.00;98042.50;5014565;28;20112;-66
2023/10/20 03:06:02;;;;;;;25.67;22.23;;;;;;;13.05;100.00;98032.97;5011243;28;20029;-67
2023/10/20 03:08:31;;;;;;;29.35;23.20;;;;;;;13.02;100.00;98022.66;5007990;28;20111;-67
2023/10/20 03:10:57;;;;;;;28.20;22.67;;;;;;;13.01;100.00;98010.53;5003117;28;20399;-66
2023/10/20 03:13:26;;;;;;;26.52;23.75;;;;;;;13.01;100.00;98007.94;5006135;28;20026;-67
2023/10/20 03:15:52;;;;;;;25.98;23.00;;;;;;;13.01;100.00;98010.53;5006378;28;20018;-67
2023/10/20 03:18:18;;;;;;;28.20;23.65;;;;;;;12.97;100.00;98010.63;5008242;28;20036;-66
2023/10/20 03:20:43;;;;;;;24.25;21.70;;;;;;;12.97;100.00;98014.94;5015071;28;20495;-67
2023/10/20 03:23:15;;;;;;;26.42;23.48;;;;;;;12.99;100.00;98022.75;5003666;28;20022;-67
2023/10/20 03:25:41;;;;;;;24.48;21.98;;;;;;;12.96;100.00;98014.13;5017232;28;20021;-67
2023/10/20 03:28:07;;;;;;;27.75;22.73;;;;;;;12.96;100.00;98006.31;5001750;28;20037;-67
2023/10/20 03:30:40;;;;;;;24.83;22.20;;;;;;;12.96;100.00;98008.06;5006210;28;20109;-67
2023/10/20 03:33:06;;;;;;;30.02;23.85;;;;;;;12.95;100.00;98002.00;5005430;28;20026;-67
2023/10/20 03:35:32;;;;;;;26.88;22.85;;;;;;;12.96;100.00;97995.06;5002127;28;20355;-66
2023/10/20 03:38:00;;;;;;;27.38;23.40;;;;;;;12.95;100.00;97985.56;5020539;28;20048;-67
2023/10/20 03:40:40;;;;;;;25.20;21.75;;;;;;;12.95;100.00;97975.16;5007165;28;20393;-66
2023/10/20 03:43:09;;;;;;;25.13;21.50;;;;;;;12.96;100.00;97982.94;5007360;28;20384;-66
2023/10/20 03:45:41;;;;;;;22.58;20.20;;;;;;;12.96;100.00;97982.94;5017803;28;20033;-67
2023/10/20 03:48:09;;;;;;;24.92;21.40;;;;;;;12.93;100.00;97982.97;4998015;28;20075;-66
2023/10/20 03:50:38;;;;;;;25.90;21.58;;;;;;;12.93;100.00;97987.34;5008255;28;20026;-66
2023/10/20 03:53:04;;;;;;;27.40;21.42;;;;;;;12.91;100.00;97983.91;5007254;28;20033;-67
2023/10/20 03:55:30;;;;;;;27.10;22.35;;;;;;;12.90;100.00;97964.88;5007034;28;20080;-66
2023/10/20 03:57:55;;;;;;;26.75;21.55;;;;;;;12.91;100.00;97948.41;5008189;28;20014;-67
2023/10/20 04:00:22;;;;;;;23.92;21.38;;;;;;;12.87;100.00;97951.94;5003074;28;20444;-67
2023/10/20 04:02:48;;;;;;;25.80;22.02;;;;;;;12.89;100.00;97957.09;4988449;28;20018;-67
2023/10/20 04:05:14;;;;;;;27.88;22.95;;;;;;;12.86;100.00;97968.44;5009379;28;20033;-67
2023/10/20 04:07:41;;;;;;;26.33;22.60;;;;;;;12.87;100.00;97957.16;5026516;28;20036;-65
2023/10/20 04:10:06;;;;;;;24.55;21.85;;;;;;;12.88;100.00;97958.84;5020744;28;20071;-67
2023/10/20 04:12:32;;;;;;;24.25;21.42;;;;;;;12.87;100.00;97951.94;5006956;28;20029;-66
2023/10/20 04:14:57;;;;;;;24.00;21.45;;;;;;;12.87;100.00;97931.16;4989316;28;20105;-66
2023/10/20 04:17:23;;;;;;;26.77;22.73;;;;;;;12.88;100.00;97926.81;5002510;28;20463;-67
2023/10/20 04:19:49;;;;;;;27.15;22.05;;;;;;;12.87;100.00;97923.38;5007490;28;20067;-67
2023/10/20 04:22:16;;;;;;;25.90;23.13;;;;;;;12.86;100.00;97929.47;5009335;28;20108;-67
2023/10/20 04:24:41;;;;;;;25.65;22.55;;;;;;;12.85;100.00;97907.81;5026172;28;20021;-66
2023/10/20 04:27:20;;;;;;;26.92;23.00;;;;;;;12.85;100.00;97897.41;5026388;28;20024;-67
2023/10/20 04:44:49;;;;;;;28.85;25.00;;;;;;;12.82;100.00;97871.53;5021088;28;20095;-66
2023/10/20 04:49:43;;;;;;;27.42;23.98;;;;;;;12.80;100.00;97856.84;5003357;28;20160;-67
2023/10/20 05:07:51;;;;;;;29.25;26.05;;;;;;;12.80;100.00;97807.47;5027338;28;20029;-65
2023/10/20 05:10:20;;;;;;;32.40;28.17;;;;;;;12.80;100.00;97810.94;5012530;28;20027;-66
2023/10/20 05:12:46;;;;;;;30.95;27.58;;;;;;;12.80;100.00;97797.94;5006310;28;20470;-67
2023/10/20 05:15:12;;;;;;;29.90;26.77;;;;;;;12.79;100.00;97804.03;5010355;28;20029;-67
2023/10/20 05:17:38;;;;;;;30.98;26.75;;;;;;;12.80;100.00;97805.75;5005926;28;20351;-66
2023/10/20 05:20:13;;;;;;;31.25;27.65;;;;;;;12.80;100.00;97802.28;5007066;28;20018;-66
2023/10/20 05:22:39;;;;;;;31.63;28.23;;;;;;;12.79;100.00;97785.81;5009901;28;20121;-66
2023/10/20 05:25:06;;;;;;;32.30;28.10;;;;;;;12.81;100.00;97772.78;5013259;28;20062;-67
2023/10/20 05:27:31;;;;;;;36.67;29.77;;;;;;;12.81;100.00;97778.00;5000135;28;20017;-67
2023/10/20 05:29:57;;;;;;;33.45;28.63;;;;;;;12.81;100.00;97772.78;5006211;28;20439;-66
2023/10/20 05:32:22;;;;;;;36.22;31.05;;;;;;;12.80;100.00;97769.38;5009856;28;20068;-67
2023/10/20 05:34:47;;;;;;;37.35;33.00;;;;;;;12.82;100.00;97783.19;5013450;28;20030;-66
2023/10/20 05:37:13;;;;;;;35.60;31.88;;;;;;;12.82;100.00;97792.69;5016324;28;20519;-66
2023/10/20 05:39:38;;;;;;;36.08;32.17;;;;;;;12.81;100.00;97791.84;5009432;28;20133;-66
2023/10/20 05:42:07;;;;;;;35.55;31.58;;;;;;;12.78;100.00;97801.47;5009700;28;20049;-67
2023/10/20 05:44:33;;;;;;;35.88;31.60;;;;;;;12.81;100.00;97806.56;5002250;28;20078;-65
2023/10/20 05:46:58;;;;;;;36.47;32.75;;;;;;;12.80;100.00;97794.50;5026432;28;20100;-67
2023/10/20 05:49:24;;;;;;;36.47;32.67;;;;;;;12.81;100.00;97778.00;5003596;28;20497;-67
2023/10/20 05:51:51;;;;;;;36.35;32.50;;;;;;;12.82;100.00;97787.50;5002536;28;20515;-66
2023/10/20 05:54:17;;;;;;;36.08;32.13;;;;;;;12.82;100.00;97777.97;4996451;28;20025;-67
2023/10/20 05:56:42;;;;;;;35.05;31.35;;;;;;;12.82;100.00;97777.13;5022789;28;20036;-67
2023/10/20 05:59:07;;;;;;;35.35;31.75;;;;;;;12.81;100.00;97771.06;5009628;28;20028;-67
2023/10/20 06:01:33;;;;;;;33.83;30.33;;;;;;;12.83;100.00;97768.41;5008551;28;20131;-66
2023/10/20 06:03:58;;;;;;;33.33;29.83;;;;;;;12.81;100.00;97771.06;5008781;28;20018;-67
2023/10/20 06:06:23;;;;;;;34.17;30.27;;;;;;;12.80;100.00;97753.78;5009660;28;20061;-67
2023/10/20 06:08:49;;;;;;;33.58;29.95;;;;;;;12.83;100.00;97758.03;5008463;28;20029;-67
2023/10/20 06:11:15;;;;;;;32.05;28.67;;;;;;;12.81;100.00;97759.81;5008902;28;20037;-67
2023/10/20 06:13:40;;;;;;;31.60;28.30;;;;;;;12.81;100.00;97745.06;5002239;28;20051;-66
2023/10/20 06:16:10;;;;;;;30.63;27.40;;;;;;;12.81;100.00;97746.81;5019771;28;20017;-66
2023/10/20 06:18:37;;;;;;;32.00;28.73;;;;;;;12.81;100.00;97749.41;5016381;28;20486;-66
2023/10/20 06:21:11;;;;;;;30.63;27.33;;;;;;;12.82;100.00;97771.91;5002249;28;20393;-66
2023/10/20 06:23:36;;;;;;;31.48;28.08;;;;;;;12.80;100.00;97777.16;5027322;28;20481;-66
2023/10/20 06:26:01;;;;;;;30.80;27.67;;;;;;;12.80;100.00;97761.56;5014011;28;20026;-67
2023/10/20 06:28:26;;;;;;;30.30;27.20;;;;;;;12.80;100.00;97739.91;4987618;28;20505;-67
2023/10/20 06:30:53;;;;;;;35.50;29.00;;;;;;;12.81;100.00;97739.00;5013746;28;20018;-66
2023/10/20 06:33:18;;;;;;;32.30;28.90;;;;;;;12.81;100.00;97744.22;5006455;28;20018;-66
2023/10/20 06:35:53;;;;;;;32.25;28.38;;;;;;;12.79;100.00;97748.63;5007952;28;20375;-67
2023/10/20 06:38:30;;;;;;;32.70;29.30;;;;;;;12.81;100.00;97746.81;5016634;28;20414;-67
2023/10/20 06:40:57;;;;;;;33.60;30.20;;;;;;;12.82;100.00;97757.19;5015683;28;20055;-67
2023/10/20 06:43:23;;;;;;;31.98;28.67;;;;;;;12.81;100.00;97762.41;4996178;28;20119;-67
2023/10/20 06:45:59;;;;;;;33.50;29.98;;;;;;;12.80;100.00;97758.09;5014927;28;20022;-68
2023/10/20 06:48:25;;;;;;;35.17;31.48;;;;;;;12.79;100.00;97746.84;5010894;28;20033;-67
2023/10/20 06:50:51;;;;;;;35.45;31.80;;;;;;;12.80;100.00;97733.00;4991767;28;20019;-67
2023/10/20 06:53:16;;;;;;;34.70;31.20;;;;;;;12.80;100.00;97737.31;5001001;28;20036;-66
2023/10/20 06:55:42;;;;;;;35.33;31.70;;;;;;;12.83;100.00;97737.22;4995276;28;20105;-67
2023/10/20 06:58:09;;;;;;;35.85;31.55;;;;;;;12.82;100.00;97741.59;5018628;28;20508;-67
2023/10/20 07:00:35;;;;;;;36.95;33.28;;;;;;;12.82;100.00;97736.41;5005251;28;20040;-66
2023/10/20 07:03:00;;;;;;;34.38;30.77;;;;;;;12.82;100.00;97732.94;5015542;28;20021;-66
2023/10/20 07:05:26;;;;;;;33.70;30.23;;;;;;;12.83;100.00;97732.03;5017319;28;20020;-66
2023/10/20 07:07:51;;;;;;;35.28;31.73;;;;;;;12.85;100.00;97732.84;5007377;28;20037;-67
2023/10/20 07:10:18;;;;;;;35.08;31.58;;;;;;;12.84;100.00;97737.19;5016062;28;20382;-66
2023/10/20 07:12:43;;;;;;;35.33;31.70;;;;;;;12.84;100.00;97728.56;5006683;28;20091;-67
2023/10/20 07:15:09;;;;;;;34.00;30.60;;;;;;;12.85;100.00;97738.03;4988347;28;20026;-67
2023/10/20 07:17:34;;;;;;;34.28;30.75;;;;;;;12.85;100.00;97735.44;5011504;28;20120;-66
2023/10/20 07:20:00;;;;;;;33.00;29.70;;;;;;;12.85;100.00;97731.13;5011371;28;20022;-67
2023/10/20 07:22:28;;;;;;;31.58;28.38;;;;;;;12.87;100.00;97728.47;5014774;28;20027;-67
2023/10/20 07:24:53;;;;;;;32.45;29.20;;;;;;;12.87;100.00;97733.66;5004486;28;20177;-66
2023/10/20 07:27:21;;;;;;;32.25;28.92;;;;;;;12.87;100.00;97725.88;5015405;28;20024;-67
2023/10/20 07:29:46;;;;;;;31.60;28.50;;;;;;;12.87;100.00;97723.28;5012170;28;20036;-68
2023/10/20 07:32:12;;;;;;;28.73;25.92;;;;;;;12.89;100.00;97721.50;5014655;28;20017;-65
2023/10/20 07:34:37;;;;;;;28.13;25.33;;;;;;;12.88;100.00;97717.16;5003088;28;20032;-67
2023/10/20 07:37:02;;;;;;;29.77;26.80;;;;;;;12.88;100.00;97727.56;5019097;28;20438;-67
2023/10/20 07:39:28;;;;;;;27.15;24.52;;;;;;;12.89;100.00;97726.69;5012878;28;20060;-67
2023/10/20 07:41:53;;;;;;;27.52;24.65;;;;;;;12.90;100.00;97730.97;5015181;28;20076;-66
2023/10/20 07:44:19;;;;;;;26.88;24.02;;;;;;;12.89;100.00;97718.03;5006689;28;20032;-67
2023/10/20 07:46:44;;;;;;;24.58;21.95;;;;;;;12.88;100.00;97714.56;5008437;28;20405;-67
2023/10/20 07:49:11;;;;;;;24.38;21.98;;;;;;;12.86;100.00;97706.00;5007769;28;20026;-66
2023/10/20 07:51:38;;;;;;;24.65;22.25;;;;;;;12.85;100.00;97706.88;5007724;28;20022;-67
2023/10/20 07:54:03;;;;;;;23.55;21.08;;;;;;;12.84;100.00;97700.81;5007921;28;20022;-67
2023/10/20 07:56:29;;;;;;;22.88;20.75;;;;;;;12.84;100.00;97700.81;5007408;28;20025;-67
2023/10/20 07:58:54;;;;;;;22.90;20.50;;;;;;;12.85;100.00;97705.13;5005459;28;20444;-66
2023/10/20 08:01:19;;;;;;;22.80;20.60;;;;;;;12.83;100.00;97691.31;5007323;28;20018;-66
2023/10/20 08:03:47;;;;;;;21.63;19.42;;;;;;;12.84;100.00;97687.00;5002869;28;20029;-67
2023/10/20 08:06:13;;;;;;;20.75;18.55;;;;;;;12.84;100.00;97674.81;5000277;28;20029;-66
2023/10/20 08:08:38;;;;;;;17.80;16.02;;;;;;;12.83;100.00;97690.47;5004783;28;20442;-66
2023/10/20 08:11:04;;;;;;;17.25;15.65;;;;;;;12.80;100.00;97685.34;5008140;28;20537;-67
2023/10/20 08:13:31;;;;;;;18.10;16.23;;;;;;;12.80;100.00;97680.16;5006672;28;20386;-67
2023/10/20 08:16:00;;;;;;;16.55;14.95;;;;;;;12.77;100.00;97688.88;5012293;28;20534;-67
2023/10/20 08:18:25;;;;;;;16.33;14.68;;;;;;;12.77;100.00;97693.25;5016130;28;20105;-67
2023/10/20 08:20:50;;;;;;;15.32;13.82;;;;;;;12.77;100.00;97698.44;5011085;28;20045;-67
2023/10/20 08:23:16;;;;;;;15.57;13.98;;;;;;;12.76;100.00;97692.38;5015976;28;20519;-67
2023/10/20 08:25:41;;;;;;;15.30;13.73;;;;;;;12.77;100.00;97686.28;5002728;28;20378;-67
2023/10/20 08:28:07;;;;;;;15.73;14.10;;;;;;;12.77;100.00;97690.66;5009853;28;20033;-67
2023/10/20 08:30:33;;;;;;;14.35;13.00;;;;;;;12.76;100.00;97684.59;5001103;28;20108;-66
2023/10/20 08:32:59;;;;;;;15.25;13.75;;;;;;;12.76;100.00;97684.59;5004109;28;20026;-67
2023/10/20 08:35:25;;;;;;;14.93;13.57;;;;;;;12.75;100.00;97688.09;4997811;28;20048;-66
2023/10/20 08:37:50;;;;;;;14.10;12.70;;;;;;;12.74;100.00;97681.19;5021930;28;20040;-66
2023/10/20 08:40:16;;;;;;;13.90;12.60;;;;;;;12.71;100.00;97682.13;5009658;28;20459;-67
2023/10/20 08:42:42;;;;;;;14.60;13.23;;;;;;;12.71;100.00;97687.31;5009021;28;20054;-66
2023/10/20 08:45:12;;;;;;;13.25;12.05;;;;;;;12.69;100.00;97683.91;5004573;28;20436;-66
2023/10/20 08:47:40;;;;;;;12.98;11.70;;;;;;;12.67;100.00;97679.63;5006583;28;20045;-67
2023/10/20 08:50:07;;;;;;;12.90;11.60;;;;;;;12.64;100.00;97683.19;4995308;28;20488;-67
2023/10/20 08:52:33;;;;;;;10.88;9.77;;;;;;;12.59;100.00;97682.47;5004266;28;20045;-67
2023/10/20 08:54:58;;;;;;;10.57;9.50;;;;;;;12.57;100.00;97684.25;5004988;28;20031;-67
2023/10/20 08:57:24;;;;;;;9.18;8.38;;;;;;;12.56;100.00;97682.53;5004149;28;20026;-68
2023/10/20 08:59:51;;;;;;;9.32;8.48;;;;;;;12.52;100.00;97676.56;5004712;28;20160;-67
2023/10/20 09:02:16;;;;;;;8.50;7.70;;;;;;;12.49;100.00;97676.66;5007404;28;20063;-66
2023/10/20 09:04:41;;;;;;;9.55;7.97;;;;;;;12.49;100.00;97681.84;5005444;28;20061;-66
2023/10/20 09:07:16;;;;;;;7.30;6.60;;;;;;;12.46;100.00;97685.38;5006140;28;20088;-67
2023/10/20 09:09:42;;;;;;;7.28;6.57;;;;;;;12.39;100.00;97681.25;5007079;28;20365;-66
2023/10/20 09:12:08;;;;;;;7.07;6.38;;;;;;;12.39;100.00;97683.84;5007108;28;20053;-67
2023/10/20 09:14:38;;;;;;;6.30;5.70;;;;;;;12.39;100.00;97688.16;5006894;28;20033;-67
2023/10/20 09:17:04;;;;;;;6.18;5.15;;;;;;;12.35;100.00;97688.25;5000348;28;20438;-67
2023/10/20 09:19:29;;;;;;;5.13;4.63;;;;;;;12.29;100.00;97683.22;5009668;28;20030;-67
2023/10/20 09:21:57;;;;;;;4.78;4.38;;;;;;;12.28;100.00;97683.25;5022914;28;20025;-66
2023/10/20 09:24:29;;;;;;;4.00;3.70;;;;;;;12.27;100.00;97673.78;5010103;28;20026;-65
2023/10/20 09:26:55;;;;;;;4.78;4.00;;;;;;;12.23;100.00;97666.03;5010771;28;20025;-67
2023/10/20 09:29:22;;;;;;;4.55;3.95;;;;;;;12.18;100.00;97661.88;5029184;28;20030;-66
2023/10/20 09:31:48;;;;;;;3.90;3.38;;;;;;;12.14;100.00;97661.09;4999978;28;20100;-67
2023/10/20 09:34:14;;;;;;;4.28;3.80;;;;;;;12.13;100.00;97670.63;4991096;28;20041;-67
2023/10/20 09:36:45;;;;;;;3.47;3.17;;;;;;;12.14;100.00;97684.47;5033470;28;20072;-65
2023/10/20 09:39:20;;;;;;;3.38;3.08;;;;;;;12.12;100.00;97671.50;5012502;28;20030;-67
2023/10/20 09:41:50;;;;;;;3.28;2.92;;;;;;;12.13;100.00;97675.81;5016709;28;20042;-67
2023/10/20 09:44:25;;;;;;;4.00;3.65;;;;;;;12.10;100.00;97672.44;5003198;28;20125;-67
2023/10/20 09:47:12;;;;;;;3.53;2.75;;;;;;;12.05;100.00;97666.50;5005752;28;20394;-67
2023/10/20 09:49:40;;;;;;;3.50;3.15;;;;;;;12.06;100.00;97657.78;5000799;28;20064;-66
2023/10/20 09:52:05;;;;;;;3.42;3.00;;;;;;;12.05;100.00;97667.34;5003932;28;20033;-68
2023/10/20 09:54:33;;;;;;;3.13;2.63;;;;;;;12.06;100.00;97661.25;5000437;28;20101;-67
2023/10/20 09:57:00;;;;;;;3.00;2.80;;;;;;;12.07;100.00;97659.53;5003320;28;20486;-67
2023/10/20 09:59:27;;;;;;;2.67;2.47;;;;;;;12.07;100.00;97665.53;5010182;28;20026;-67
2023/10/20 10:01:53;;;;;;;2.70;2.42;;;;;;;12.03;100.00;97665.66;5004269;28;20168;-67
2023/10/20 10:04:30;;;;;;;2.75;2.55;;;;;;;12.04;100.00;97665.63;5003939;28;20022;-66
2023/10/20 10:07:03;;;;;;;3.17;2.90;;;;;;;12.05;100.00;97675.13;5000637;28;20546;-67
2023/10/20 10:09:40;;;;;;;2.80;2.60;;;;;;;12.04;100.00;97664.75;5004284;28;20026;-67
2023/10/20 10:12:10;;;;;;;2.90;2.70;;;;;;;12.05;100.00;97666.50;5005996;28;20061;-67
2023/10/20 10:14:36;;;;;;;2.90;2.70;;;;;;;12.03;100.00;97657.88;5009488;28;20060;-67
2023/10/20 10:17:08;;;;;;;2.95;2.75;;;;;;;12.04;100.00;97656.97;5027130;28;20029;-66
2023/10/20 10:19:33;;;;;;;3.03;2.80;;;;;;;12.05;100.00;97656.09;5003568;28;20041;-66
2023/10/20 10:22:01;;;;;;;3.10;2.90;;;;;;;12.05;100.00;97658.69;5014472;28;20025;-67
2023/10/20 10:24:31;;;;;;;2.80;2.55;;;;;;;12.06;100.00;97658.66;5009370;28;20048;-67
2023/10/20 10:27:02;;;;;;;2.97;2.78;;;;;;;12.06;100.00;97657.78;4996031;28;20038;-66
2023/10/20 10:30:05;;;;;;;2.70;2.50;;;;;;;12.05;100.00;97656.09;5002516;28;20025;-66
2023/10/20 10:32:31;;;;;;;2.80;2.70;;;;;;;12.07;100.00;97652.56;4996941;28;20749;-66
2023/10/20 10:34:58;;;;;;;2.60;2.40;;;;;;;12.09;100.00;97649.94;5008640;28;20033;-66
2023/10/20 10:37:37;;;;;;;3.13;2.92;;;;;;;12.11;100.00;97643.00;5022659;28;20032;-66
2023/10/20 10:40:18;;;;;;;2.85;2.65;;;;;;;12.13;100.00;97638.63;5019044;28;20525;-67
2023/10/20 10:42:48;;;;;;;3.13;2.92;;;;;;;12.13;100.00;97631.69;5016941;28;20049;-67
2023/10/20 10:45:23;;;;;;;3.45;3.15;;;;;;;12.16;100.00;97628.16;5001762;28;20382;-67
2023/10/20 10:48:07;;;;;;;3.67;3.38;;;;;;;12.14;100.00;97619.56;5007839;28;20049;-67
2023/10/20 10:50:35;;;;;;;3.70;3.50;;;;;;;12.13;100.00;97607.47;5010274;28;20406;-67
2023/10/20 10:53:01;;;;;;;3.85;3.55;;;;;;;12.14;100.00;97588.44;5008800;28;20168;-67
2023/10/20 10:55:26;;;;;;;3.80;3.50;;;;;;;12.14;100.00;97588.44;5005935;28;20116;-66
2023/10/20 10:57:52;;;;;;;3.45;3.25;;;;;;;12.17;100.00;97588.34;4999361;28;20026;-67
2023/10/20 11:00:18;;;;;;;3.42;3.13;;;;;;;12.18;100.00;97584.84;5014519;28;20022;-67
2023/10/20 11:02:44;;;;;;;4.03;3.80;;;;;;;12.18;100.00;97584.84;5008198;28;20028;-67
2023/10/20 11:05:10;;;;;;;4.63;4.32;;;;;;;12.22;100.00;97580.41;4997196;28;20105;-67
2023/10/20 11:07:36;;;;;;;5.82;5.43;;;;;;;12.24;100.00;97589.88;5018066;28;20104;-66
2023/10/20 11:10:03;;;;;;;5.88;5.47;;;;;;;12.27;100.00;97582.91;5006711;28;20557;-65
2023/10/20 11:12:29;;;;;;;6.32;5.93;;;;;;;12.30;100.00;97580.22;4990078;28;20556;-66
2023/10/20 11:14:59;;;;;;;7.28;6.78;;;;;;;12.31;100.00;97577.59;5006773;28;20386;-67
2023/10/20 11:17:25;;;;;;;9.35;8.75;;;;;;;12.34;100.00;97574.06;5010865;28;20181;-67
2023/10/20 11:19:50;;;;;;;10.38;9.68;;;;;;;12.32;100.00;97565.47;5027397;28;20037;-66
2023/10/20 11:22:16;;;;;;;10.57;9.88;;;;;;;12.34;100.00;97568.88;5001827;28;20052;-66
2023/10/20 11:24:42;;;;;;;10.98;10.18;;;;;;;12.30;100.00;97565.50;5018020;28;20067;-66
2023/10/20 11:27:11;;;;;;;11.02;10.32;;;;;;;12.32;100.00;97565.47;4997813;28;20478;-67
2023/10/20 11:29:37;;;;;;;11.10;10.20;;;;;;;12.34;100.00;97568.88;5016908;28;20116;-67
2023/10/20 11:32:07;;;;;;;12.05;11.25;;;;;;;12.33;100.00;97564.56;4999044;28;20136;-67
2023/10/20 11:34:33;;;;;;;13.02;12.02;;;;;;;12.35;100.00;97565.38;5016442;28;20040;-67
2023/10/20 11:37:00;;;;;;;13.20;12.30;;;;;;;12.35;100.00;97562.78;5025307;28;20029;-67
2023/10/20 11:39:27;;;;;;;13.20;12.25;;;;;;;12.37;100.00;97558.38;5008974;28;20536;-67
2023/10/20 11:41:53;;;;;;;14.88;13.88;;;;;;;12.36;100.00;97552.34;5006794;28;20501;-66
2023/10/20 11:44:18;;;;;;;16.15;14.95;;;;;;;12.39;100.00;97551.41;5011595;28;20453;-66